sensor_id;sensor_type;location;lat;lon;timestamp;P1;durP1;ratioP1;P2;durP2;ratioP2
15681;SDS011;7941;50.966;6.978;2023-04-01T00:00:32;4.20;;;1.30;;
15681;SDS011;7941;50.966;6.978;2023-04-01T00:02:58;3.93;;;1.40;;
15681;SDS011;7941;50.966;6.978;2023-04-01T00:05:25;1.53;;;1.20;;
15681;SDS011;7941;50.966;6.978;2023-04-01T00:07:52;3.43;;;1.30;;
15681;SDS011;7941;50.966;6.978;2023-04-01T00:10:18;1.57;;;1.23;;
15681;SDS011;7941;50.966;6.978;2023-04-01T00:12:44;1.97;;;0.97;;
15681;SDS011;7941;50.966;6.978;2023-04-01T00:15:11;2.77;;;1.20;;
15681;SDS011;7941;50.966;6.978;2023-04-01T00:17:37;2.70;;;1.17;;
15681;SDS011;7941;50.966;6.978;2023-04-01T00:20:04;1.63;;;0.80;;
15681;SDS011;7941;50.966;6.978;2023-04-01T00:22:30;2.10;;;1.07;;
15681;SDS011;7941;50.966;6.978;2023-04-01T00:24:57;1.23;;;0.90;;
15681;SDS011;7941;50.966;6.978;2023-04-01T00:27:23;1.63;;;0.90;;
15681;SDS011;7941;50.966;6.978;2023-04-01T00:29:49;1.57;;;1.00;;
15681;SDS011;7941;50.966;6.978;2023-04-01T00:32:15;2.50;;;1.20;;
15681;SDS011;7941;50.966;6.978;2023-04-01T00:34:42;2.23;;;1.43;;
15681;SDS011;7941;50.966;6.978;2023-04-01T00:37:09;2.40;;;1.20;;
15681;SDS011;7941;50.966;6.978;2023-04-01T00:39:36;2.57;;;1.30;;
15681;SDS011;7941;50.966;6.978;2023-04-01T00:42:03;1.30;;;1.20;;
15681;SDS011;7941;50.966;6.978;2023-04-01T00:44:30;2.17;;;1.47;;
15681;SDS011;7941;50.966;6.978;2023-04-01T00:46:58;1.97;;;1.20;;
15681;SDS011;7941;50.966;6.978;2023-04-01T00:49:29;2.90;;;1.10;;
15681;SDS011;7941;50.966;6.978;2023-04-01T00:51:57;4.13;;;1.77;;
15681;SDS011;7941;50.966;6.978;2023-04-01T00:54:25;1.17;;;0.90;;
15681;SDS011;7941;50.966;6.978;2023-04-01T00:56:55;1.20;;;1.10;;
15681;SDS011;7941;50.966;6.978;2023-04-01T00:59:24;1.27;;;1.00;;
15681;SDS011;7941;50.966;6.978;2023-04-01T01:01:51;0.90;;;0.80;;
15681;SDS011;7941;50.966;6.978;2023-04-01T01:04:27;1.73;;;0.90;;
15681;SDS011;7941;50.966;6.978;2023-04-01T01:07:07;1.53;;;0.93;;
15681;SDS011;7941;50.966;6.978;2023-04-01T01:17:45;1.27;;;1.17;;
15681;SDS011;7941;50.966;6.978;2023-04-01T01:22:57;1.87;;;0.80;;
15681;SDS011;7941;50.966;6.978;2023-04-01T01:25:43;1.70;;;1.07;;
15681;SDS011;7941;50.966;6.978;2023-04-01T01:33:20;2.00;;;0.90;;
15681;SDS011;7941;50.966;6.978;2023-04-01T01:35:51;1.43;;;0.93;;
15681;SDS011;7941;50.966;6.978;2023-04-01T01:38:27;1.30;;;1.20;;
15681;SDS011;7941;50.966;6.978;2023-04-01T01:40:54;2.30;;;0.70;;
15681;SDS011;7941;50.966;6.978;2023-04-01T01:43:24;2.33;;;1.00;;
15681;SDS011;7941;50.966;6.978;2023-04-01T01:45:55;1.13;;;1.03;;
15681;SDS011;7941;50.966;6.978;2023-04-01T01:48:23;1.03;;;0.80;;
15681;SDS011;7941;50.966;6.978;2023-04-01T01:50:50;0.80;;;0.80;;
15681;SDS011;7941;50.966;6.978;2023-04-01T01:53:16;1.73;;;0.73;;
15681;SDS011;7941;50.966;6.978;2023-04-01T01:55:43;1.60;;;1.10;;
15681;SDS011;7941;50.966;6.978;2023-04-01T01:58:21;1.80;;;0.80;;
15681;SDS011;7941;50.966;6.978;2023-04-01T02:01:12;0.93;;;0.80;;
15681;SDS011;7941;50.966;6.978;2023-04-01T02:03:36;1.00;;;1.00;;
15681;SDS011;7941;50.966;6.978;2023-04-01T02:06:04;2.00;;;0.97;;
15681;SDS011;7941;50.966;6.978;2023-04-01T02:11:09;1.23;;;1.00;;
15681;SDS011;7941;50.966;6.978;2023-04-01T02:13:55;1.47;;;0.90;;
15681;SDS011;7941;50.966;6.978;2023-04-01T02:16:32;0.93;;;0.73;;
15681;SDS011;7941;50.966;6.978;2023-04-01T02:19:00;2.57;;;0.70;;
15681;SDS011;7941;50.966;6.978;2023-04-01T02:21:27;4.67;;;0.90;;
15681;SDS011;7941;50.966;6.978;2023-04-01T02:23:56;2.33;;;0.90;;
15681;SDS011;7941;50.966;6.978;2023-04-01T02:26:23;0.70;;;0.70;;
15681;SDS011;7941;50.966;6.978;2023-04-01T02:28:51;0.77;;;0.60;;
15681;SDS011;7941;50.966;6.978;2023-04-01T02:31:18;2.03;;;0.70;;
15681;SDS011;7941;50.966;6.978;2023-04-01T02:33:44;3.00;;;0.90;;
15681;SDS011;7941;50.966;6.978;2023-04-01T02:36:14;1.83;;;0.60;;
15681;SDS011;7941;50.966;6.978;2023-04-01T02:38:41;3.77;;;0.80;;
15681;SDS011;7941;50.966;6.978;2023-04-01T02:41:08;2.97;;;0.70;;
15681;SDS011;7941;50.966;6.978;2023-04-01T02:43:34;2.10;;;0.80;;
15681;SDS011;7941;50.966;6.978;2023-04-01T02:46:00;0.40;;;0.40;;
15681;SDS011;7941;50.966;6.978;2023-04-01T02:48:27;0.30;;;0.30;;
15681;SDS011;7941;50.966;6.978;2023-04-01T02:50:53;0.30;;;0.30;;
15681;SDS011;7941;50.966;6.978;2023-04-01T02:53:19;0.30;;;0.30;;
15681;SDS011;7941;50.966;6.978;2023-04-01T02:55:45;2.90;;;1.50;;
15681;SDS011;7941;50.966;6.978;2023-04-01T02:58:11;8.20;;;2.30;;
15681;SDS011;7941;50.966;6.978;2023-04-01T03:00:38;3.67;;;1.43;;
15681;SDS011;7941;50.966;6.978;2023-04-01T03:03:04;4.53;;;1.50;;
15681;SDS011;7941;50.966;6.978;2023-04-01T03:05:30;3.50;;;1.60;;
15681;SDS011;7941;50.966;6.978;2023-04-01T03:07:56;2.50;;;1.83;;
15681;SDS011;7941;50.966;6.978;2023-04-01T03:10:22;3.87;;;1.40;;
15681;SDS011;7941;50.966;6.978;2023-04-01T03:12:48;3.90;;;1.80;;
15681;SDS011;7941;50.966;6.978;2023-04-01T03:15:15;3.00;;;1.60;;
15681;SDS011;7941;50.966;6.978;2023-04-01T03:17:41;2.77;;;1.40;;
15681;SDS011;7941;50.966;6.978;2023-04-01T03:20:08;1.80;;;1.27;;
15681;SDS011;7941;50.966;6.978;2023-04-01T03:22:35;3.03;;;1.20;;
15681;SDS011;7941;50.966;6.978;2023-04-01T03:25:02;1.20;;;1.10;;
15681;SDS011;7941;50.966;6.978;2023-04-01T03:27:28;2.77;;;1.37;;
15681;SDS011;7941;50.966;6.978;2023-04-01T03:29:54;1.40;;;1.30;;
15681;SDS011;7941;50.966;6.978;2023-04-01T03:32:20;2.73;;;1.20;;
15681;SDS011;7941;50.966;6.978;2023-04-01T03:34:46;1.30;;;1.20;;
15681;SDS011;7941;50.966;6.978;2023-04-01T03:37:13;2.17;;;0.97;;
15681;SDS011;7941;50.966;6.978;2023-04-01T03:39:39;3.87;;;1.07;;
15681;SDS011;7941;50.966;6.978;2023-04-01T03:42:05;1.33;;;1.10;;
15681;SDS011;7941;50.966;6.978;2023-04-01T03:44:35;1.33;;;0.80;;
15681;SDS011;7941;50.966;6.978;2023-04-01T03:47:01;3.13;;;0.83;;
15681;SDS011;7941;50.966;6.978;2023-04-01T03:49:27;0.80;;;0.80;;
15681;SDS011;7941;50.966;6.978;2023-04-01T03:51:54;2.20;;;0.73;;
15681;SDS011;7941;50.966;6.978;2023-04-01T03:54:20;0.70;;;0.70;;
15681;SDS011;7941;50.966;6.978;2023-04-01T03:56:46;2.40;;;1.13;;
15681;SDS011;7941;50.966;6.978;2023-04-01T03:59:12;1.60;;;0.80;;
15681;SDS011;7941;50.966;6.978;2023-04-01T04:01:38;1.43;;;0.97;;
15681;SDS011;7941;50.966;6.978;2023-04-01T04:04:05;2.00;;;0.90;;
15681;SDS011;7941;50.966;6.978;2023-04-01T04:06:32;1.03;;;0.70;;
15681;SDS011;7941;50.966;6.978;2023-04-01T04:08:58;13.50;;;9.47;;
15681;SDS011;7941;50.966;6.978;2023-04-01T04:11:24;2.57;;;1.73;;
15681;SDS011;7941;50.966;6.978;2023-04-01T04:13:50;1.87;;;1.20;;
15681;SDS011;7941;50.966;6.978;2023-04-01T04:16:17;1.37;;;0.80;;
15681;SDS011;7941;50.966;6.978;2023-04-01T04:18:43;1.10;;;0.80;;
15681;SDS011;7941;50.966;6.978;2023-04-01T04:21:13;1.63;;;0.90;;
15681;SDS011;7941;50.966;6.978;2023-04-01T04:23:40;1.10;;;0.90;;
15681;SDS011;7941;50.966;6.978;2023-04-01T04:26:07;0.70;;;0.70;;
15681;SDS011;7941;50.966;6.978;2023-04-01T04:28:34;0.93;;;0.70;;
15681;SDS011;7941;50.966;6.978;2023-04-01T04:31:00;1.80;;;0.70;;
15681;SDS011;7941;50.966;6.978;2023-04-01T04:33:27;1.07;;;0.70;;
15681;SDS011;7941;50.966;6.978;2023-04-01T04:35:57;0.73;;;0.53;;
15681;SDS011;7941;50.966;6.978;2023-04-01T04:38:24;0.70;;;0.70;;
15681;SDS011;7941;50.966;6.978;2023-04-01T04:40:51;1.57;;;0.60;;
15681;SDS011;7941;50.966;6.978;2023-04-01T04:43:17;0.70;;;0.70;;
15681;SDS011;7941;50.966;6.978;2023-04-01T04:45:43;1.27;;;1.17;;
15681;SDS011;7941;50.966;6.978;2023-04-01T04:48:10;1.33;;;0.87;;
15681;SDS011;7941;50.966;6.978;2023-04-01T04:50:44;0.97;;;0.83;;
15681;SDS011;7941;50.966;6.978;2023-04-01T04:53:11;1.00;;;1.00;;
15681;SDS011;7941;50.966;6.978;2023-04-01T04:55:37;0.70;;;0.70;;
15681;SDS011;7941;50.966;6.978;2023-04-01T04:58:03;1.23;;;0.67;;
15681;SDS011;7941;50.966;6.978;2023-04-01T05:00:29;1.80;;;0.63;;
15681;SDS011;7941;50.966;6.978;2023-04-01T05:02:55;1.13;;;0.60;;
15681;SDS011;7941;50.966;6.978;2023-04-01T05:05:21;2.20;;;0.83;;
15681;SDS011;7941;50.966;6.978;2023-04-01T05:07:48;0.90;;;0.90;;
15681;SDS011;7941;50.966;6.978;2023-04-01T05:10:14;1.10;;;0.80;;
15681;SDS011;7941;50.966;6.978;2023-04-01T05:12:40;1.80;;;1.00;;
15681;SDS011;7941;50.966;6.978;2023-04-01T05:15:06;0.93;;;0.93;;
15681;SDS011;7941;50.966;6.978;2023-04-01T05:17:33;1.13;;;0.80;;
15681;SDS011;7941;50.966;6.978;2023-04-01T05:19:59;1.83;;;1.27;;
15681;SDS011;7941;50.966;6.978;2023-04-01T05:22:25;2.20;;;1.00;;
15681;SDS011;7941;50.966;6.978;2023-04-01T05:24:51;2.60;;;1.60;;
15681;SDS011;7941;50.966;6.978;2023-04-01T05:27:17;2.17;;;1.27;;
15681;SDS011;7941;50.966;6.978;2023-04-01T05:29:43;2.50;;;1.50;;
15681;SDS011;7941;50.966;6.978;2023-04-01T05:32:10;1.70;;;1.27;;
15681;SDS011;7941;50.966;6.978;2023-04-01T05:34:36;1.50;;;1.40;;
15681;SDS011;7941;50.966;6.978;2023-04-01T05:37:02;1.67;;;1.57;;
15681;SDS011;7941;50.966;6.978;2023-04-01T05:39:28;2.23;;;2.03;;
15681;SDS011;7941;50.966;6.978;2023-04-01T05:41:55;2.17;;;2.00;;
15681;SDS011;7941;50.966;6.978;2023-04-01T05:44:21;6.77;;;2.07;;
15681;SDS011;7941;50.966;6.978;2023-04-01T05:46:47;2.88;;;1.88;;
15681;SDS011;7941;50.966;6.978;2023-04-01T05:49:13;2.80;;;1.73;;
15681;SDS011;7941;50.966;6.978;2023-04-01T05:51:39;2.20;;;1.70;;
15681;SDS011;7941;50.966;6.978;2023-04-01T05:54:05;3.97;;;1.83;;
15681;SDS011;7941;50.966;6.978;2023-04-01T05:56:32;4.00;;;2.27;;
15681;SDS011;7941;50.966;6.978;2023-04-01T05:58:58;3.07;;;2.50;;
15681;SDS011;7941;50.966;6.978;2023-04-01T06:01:24;2.87;;;2.60;;
15681;SDS011;7941;50.966;6.978;2023-04-01T06:03:50;4.87;;;2.70;;
15681;SDS011;7941;50.966;6.978;2023-04-01T06:06:26;3.40;;;2.90;;
15681;SDS011;7941;50.966;6.978;2023-04-01T06:08:52;4.80;;;2.80;;
15681;SDS011;7941;50.966;6.978;2023-04-01T06:21:46;7.40;;;3.73;;
15681;SDS011;7941;50.966;6.978;2023-04-01T06:29:34;5.30;;;4.30;;
15681;SDS011;7941;50.966;6.978;2023-04-01T06:37:15;6.87;;;5.07;;
15681;SDS011;7941;50.966;6.978;2023-04-01T06:44:48;4.80;;;3.80;;
15681;SDS011;7941;50.966;6.978;2023-04-01T06:55:18;5.70;;;5.20;;
15681;SDS011;7941;50.966;6.978;2023-04-01T06:57:50;10.77;;;6.47;;
15681;SDS011;7941;50.966;6.978;2023-04-01T07:03:08;7.40;;;6.70;;
15681;SDS011;7941;50.966;6.978;2023-04-01T07:05:36;7.60;;;5.53;;
15681;SDS011;7941;50.966;6.978;2023-04-01T07:08:04;8.53;;;6.23;;
15681;SDS011;7941;50.966;6.978;2023-04-01T07:13:04;6.20;;;5.70;;
15681;SDS011;7941;50.966;6.978;2023-04-01T07:15:38;6.90;;;5.80;;
15681;SDS011;7941;50.966;6.978;2023-04-01T07:18:52;7.27;;;5.80;;
15681;SDS011;7941;50.966;6.978;2023-04-01T07:20:52;7.27;;;6.53;;
15681;SDS011;7941;50.966;6.978;2023-04-01T07:23:26;6.57;;;5.67;;
15681;SDS011;7941;50.966;6.978;2023-04-01T07:26:03;9.03;;;6.10;;
15681;SDS011;7941;50.966;6.978;2023-04-01T07:28:31;6.63;;;5.70;;
15681;SDS011;7941;50.966;6.978;2023-04-01T07:38:50;8.00;;;5.77;;
15681;SDS011;7941;50.966;6.978;2023-04-01T07:49:03;5.27;;;4.77;;
15681;SDS011;7941;50.966;6.978;2023-04-01T07:54:43;5.00;;;4.50;;
15681;SDS011;7941;50.966;6.978;2023-04-01T07:56:57;6.87;;;5.67;;
15681;SDS011;7941;50.966;6.978;2023-04-01T08:02:25;6.60;;;5.63;;
15681;SDS011;7941;50.966;6.978;2023-04-01T08:10:44;6.03;;;3.80;;
15681;SDS011;7941;50.966;6.978;2023-04-01T08:13:16;5.77;;;4.63;;
15681;SDS011;7941;50.966;6.978;2023-04-01T08:21:13;5.83;;;5.23;;
15681;SDS011;7941;50.966;6.978;2023-04-01T08:23:41;4.27;;;3.90;;
15681;SDS011;7941;50.966;6.978;2023-04-01T08:26:44;4.10;;;3.80;;
15681;SDS011;7941;50.966;6.978;2023-04-01T08:29:10;6.33;;;4.10;;
15681;SDS011;7941;50.966;6.978;2023-04-01T08:34:20;4.20;;;3.80;;
15681;SDS011;7941;50.966;6.978;2023-04-01T08:36:51;4.80;;;3.83;;
15681;SDS011;7941;50.966;6.978;2023-04-01T08:47:33;4.07;;;3.67;;
15681;SDS011;7941;50.966;6.978;2023-04-01T08:52:41;4.53;;;3.97;;
15681;SDS011;7941;50.966;6.978;2023-04-01T09:00:25;4.07;;;3.53;;
15681;SDS011;7941;50.966;6.978;2023-04-01T09:02:59;3.20;;;3.00;;
15681;SDS011;7941;50.966;6.978;2023-04-01T09:05:32;4.50;;;3.30;;
15681;SDS011;7941;50.966;6.978;2023-04-01T09:13:10;2.67;;;2.43;;
15681;SDS011;7941;50.966;6.978;2023-04-01T09:21:24;2.87;;;2.50;;
15681;SDS011;7941;50.966;6.978;2023-04-01T09:37:08;3.33;;;3.13;;
15681;SDS011;7941;50.966;6.978;2023-04-01T09:39:34;4.90;;;3.20;;
15681;SDS011;7941;50.966;6.978;2023-04-01T09:47:23;3.67;;;3.47;;
15681;SDS011;7941;50.966;6.978;2023-04-01T09:49:55;4.87;;;4.33;;
15681;SDS011;7941;50.966;6.978;2023-04-01T10:20:56;5.00;;;4.60;;
15681;SDS011;7941;50.966;6.978;2023-04-01T10:47:39;5.00;;;3.47;;
15681;SDS011;7941;50.966;6.978;2023-04-01T11:00:55;3.88;;;3.58;;
15681;SDS011;7941;50.966;6.978;2023-04-01T11:24:11;2.93;;;2.73;;
15681;SDS011;7941;50.966;6.978;2023-04-01T11:29:19;2.70;;;2.50;;
15681;SDS011;7941;50.966;6.978;2023-04-01T11:36:46;4.10;;;2.30;;
15681;SDS011;7941;50.966;6.978;2023-04-01T11:41:52;2.13;;;2.03;;
15681;SDS011;7941;50.966;6.978;2023-04-01T11:44:22;2.20;;;2.10;;
15681;SDS011;7941;50.966;6.978;2023-04-01T11:57:43;2.43;;;2.23;;
15681;SDS011;7941;50.966;6.978;2023-04-01T12:00:21;1.93;;;1.83;;
15681;SDS011;7941;50.966;6.978;2023-04-01T12:05:50;1.60;;;1.50;;
15681;SDS011;7941;50.966;6.978;2023-04-01T12:18:55;2.43;;;2.00;;
15681;SDS011;7941;50.966;6.978;2023-04-01T12:21:25;1.87;;;1.77;;
15681;SDS011;7941;50.966;6.978;2023-04-01T12:34:38;1.63;;;1.60;;
15681;SDS011;7941;50.966;6.978;2023-04-01T12:50:24;1.87;;;1.77;;
15681;SDS011;7941;50.966;6.978;2023-04-01T12:55:43;2.10;;;2.00;;
15681;SDS011;7941;50.966;6.978;2023-04-01T13:00:58;1.53;;;1.53;;
15681;SDS011;7941;50.966;6.978;2023-04-01T13:08:46;2.10;;;2.00;;
15681;SDS011;7941;50.966;6.978;2023-04-01T13:13:47;2.10;;;2.00;;
15681;SDS011;7941;50.966;6.978;2023-04-01T13:16:24;2.20;;;2.00;;
15681;SDS011;7941;50.966;6.978;2023-04-01T13:21:25;1.73;;;1.63;;
15681;SDS011;7941;50.966;6.978;2023-04-01T13:29:07;2.70;;;2.03;;
15681;SDS011;7941;50.966;6.978;2023-04-01T13:42:26;2.33;;;2.23;;
15681;SDS011;7941;50.966;6.978;2023-04-01T13:50:57;3.13;;;2.93;;
15681;SDS011;7941;50.966;6.978;2023-04-01T13:53:05;3.90;;;3.60;;
15681;SDS011;7941;50.966;6.978;2023-04-01T14:03:50;4.80;;;4.50;;
15681;SDS011;7941;50.966;6.978;2023-04-01T14:09:11;5.30;;;4.90;;
15681;SDS011;7941;50.966;6.978;2023-04-01T14:25:10;6.10;;;5.70;;
15681;SDS011;7941;50.966;6.978;2023-04-01T14:27:17;6.90;;;6.40;;
15681;SDS011;7941;50.966;6.978;2023-04-01T14:29:49;6.43;;;5.93;;
15681;SDS011;7941;50.966;6.978;2023-04-01T14:35:11;7.30;;;6.70;;
15681;SDS011;7941;50.966;6.978;2023-04-01T14:40:29;7.60;;;7.00;;
15681;SDS011;7941;50.966;6.978;2023-04-01T14:51:08;7.03;;;6.43;;
15681;SDS011;7941;50.966;6.978;2023-04-01T14:53:36;7.93;;;7.33;;
15681;SDS011;7941;50.966;6.978;2023-04-01T14:56:04;8.60;;;7.80;;
15681;SDS011;7941;50.966;6.978;2023-04-01T14:58:43;7.80;;;7.20;;
15681;SDS011;7941;50.966;6.978;2023-04-01T15:09:22;6.37;;;5.87;;
15681;SDS011;7941;50.966;6.978;2023-04-01T15:16:57;5.30;;;4.90;;
15681;SDS011;7941;50.966;6.978;2023-04-01T15:25:00;6.10;;;5.67;;
15681;SDS011;7941;50.966;6.978;2023-04-01T15:27:34;5.50;;;5.10;;
15681;SDS011;7941;50.966;6.978;2023-04-01T15:40:20;8.73;;;7.43;;
15681;SDS011;7941;50.966;6.978;2023-04-01T15:59:10;7.33;;;6.73;;
15681;SDS011;7941;50.966;6.978;2023-04-01T16:01:59;8.10;;;7.43;;
15681;SDS011;7941;50.966;6.978;2023-04-01T16:07:43;8.10;;;7.40;;
15681;SDS011;7941;50.966;6.978;2023-04-01T16:10:05;7.90;;;7.30;;
15681;SDS011;7941;50.966;6.978;2023-04-01T16:26:19;7.13;;;6.57;;
15681;SDS011;7941;50.966;6.978;2023-04-01T16:31:42;7.27;;;6.67;;
15681;SDS011;7941;50.966;6.978;2023-04-01T16:34:14;6.33;;;5.77;;
15681;SDS011;7941;50.966;6.978;2023-04-01T16:36:45;6.23;;;5.73;;
15681;SDS011;7941;50.966;6.978;2023-04-01T16:39:18;6.33;;;5.73;;
15681;SDS011;7941;50.966;6.978;2023-04-01T16:41:51;6.80;;;6.20;;
15681;SDS011;7941;50.966;6.978;2023-04-01T16:44:20;7.57;;;6.87;;
15681;SDS011;7941;50.966;6.978;2023-04-01T16:46:53;7.43;;;6.70;;
15681;SDS011;7941;50.966;6.978;2023-04-01T16:49:42;7.40;;;6.80;;
15681;SDS011;7941;50.966;6.978;2023-04-01T16:57:10;8.97;;;8.13;;
15681;SDS011;7941;50.966;6.978;2023-04-01T17:20:12;7.80;;;7.20;;
15681;SDS011;7941;50.966;6.978;2023-04-01T17:22:47;8.37;;;7.67;;
15681;SDS011;7941;50.966;6.978;2023-04-01T17:33:30;8.23;;;7.53;;
15681;SDS011;7941;50.966;6.978;2023-04-01T17:36:20;9.20;;;8.40;;
15681;SDS011;7941;50.966;6.978;2023-04-01T17:44:30;7.83;;;7.13;;
15681;SDS011;7941;50.966;6.978;2023-04-01T17:47:04;8.27;;;7.50;;
15681;SDS011;7941;50.966;6.978;2023-04-01T17:59:38;10.43;;;9.53;;
15681;SDS011;7941;50.966;6.978;2023-04-01T18:09:45;11.13;;;10.23;;
15681;SDS011;7941;50.966;6.978;2023-04-01T18:20:07;13.30;;;12.07;;
15681;SDS011;7941;50.966;6.978;2023-04-01T18:25:53;14.53;;;13.27;;
15681;SDS011;7941;50.966;6.978;2023-04-01T18:36:26;15.00;;;13.60;;
15681;SDS011;7941;50.966;6.978;2023-04-01T18:39:02;14.13;;;12.93;;
15681;SDS011;7941;50.966;6.978;2023-04-01T18:41:32;14.80;;;13.50;;
15681;SDS011;7941;50.966;6.978;2023-04-01T18:53:59;14.73;;;13.40;;
15681;SDS011;7941;50.966;6.978;2023-04-01T18:56:28;14.43;;;13.03;;
15681;SDS011;7941;50.966;6.978;2023-04-01T19:01:34;13.67;;;12.37;;
15681;SDS011;7941;50.966;6.978;2023-04-01T19:06:52;13.20;;;12.10;;
15681;SDS011;7941;50.966;6.978;2023-04-01T19:09:21;12.57;;;11.37;;
15681;SDS011;7941;50.966;6.978;2023-04-01T19:17:25;12.60;;;11.50;;
15681;SDS011;7941;50.966;6.978;2023-04-01T19:19:58;13.30;;;11.93;;
15681;SDS011;7941;50.966;6.978;2023-04-01T19:22:50;14.20;;;12.80;;
15681;SDS011;7941;50.966;6.978;2023-04-01T19:25:41;16.07;;;14.50;;
15681;SDS011;7941;50.966;6.978;2023-04-01T19:28:31;17.30;;;15.50;;
15681;SDS011;7941;50.966;6.978;2023-04-01T19:31:44;18.03;;;16.30;;
15681;SDS011;7941;50.966;6.978;2023-04-01T19:46:30;15.17;;;13.77;;
15681;SDS011;7941;50.966;6.978;2023-04-01T19:56:24;15.93;;;14.33;;
15681;SDS011;7941;50.966;6.978;2023-04-01T20:04:31;16.37;;;14.70;;
15681;SDS011;7941;50.966;6.978;2023-04-01T20:12:34;17.10;;;15.50;;
15681;SDS011;7941;50.966;6.978;2023-04-01T20:15:28;18.43;;;16.63;;
15681;SDS011;7941;50.966;6.978;2023-04-01T20:17:53;19.23;;;17.43;;
15681;SDS011;7941;50.966;6.978;2023-04-01T20:20:21;19.90;;;17.90;;
15681;SDS011;7941;50.966;6.978;2023-04-01T20:23:01;19.57;;;17.63;;
15681;SDS011;7941;50.966;6.978;2023-04-01T20:25:42;20.37;;;18.17;;
15681;SDS011;7941;50.966;6.978;2023-04-01T20:30:54;26.07;;;20.60;;
15681;SDS011;7941;50.966;6.978;2023-04-01T20:39:01;23.20;;;20.73;;
15681;SDS011;7941;50.966;6.978;2023-04-01T20:46:47;26.90;;;22.10;;
15681;SDS011;7941;50.966;6.978;2023-04-01T20:49:33;25.50;;;20.53;;
15681;SDS011;7941;50.966;6.978;2023-04-01T20:52:02;28.00;;;21.23;;
15681;SDS011;7941;50.966;6.978;2023-04-01T20:57:11;23.37;;;19.67;;
15681;SDS011;7941;50.966;6.978;2023-04-01T21:12:48;24.57;;;19.53;;
15681;SDS011;7941;50.966;6.978;2023-04-01T21:34:36;29.20;;;20.13;;
15681;SDS011;7941;50.966;6.978;2023-04-01T21:37:41;25.27;;;19.50;;
15681;SDS011;7941;50.966;6.978;2023-04-01T21:44:37;23.27;;;17.30;;
15681;SDS011;7941;50.966;6.978;2023-04-01T21:47:08;22.63;;;17.47;;
15681;SDS011;7941;50.966;6.978;2023-04-01T21:49:56;20.40;;;15.67;;
15681;SDS011;7941;50.966;6.978;2023-04-01T22:02:55;15.07;;;13.47;;
15681;SDS011;7941;50.966;6.978;2023-04-01T22:08:02;16.87;;;14.70;;
15681;SDS011;7941;50.966;6.978;2023-04-01T22:18:33;18.57;;;15.67;;
15681;SDS011;7941;50.966;6.978;2023-04-01T22:24:06;18.83;;;15.87;;
15681;SDS011;7941;50.966;6.978;2023-04-01T22:31:44;21.03;;;16.13;;
15681;SDS011;7941;50.966;6.978;2023-04-01T22:34:16;20.20;;;16.17;;
15681;SDS011;7941;50.966;6.978;2023-04-01T22:39:31;20.43;;;16.27;;
15681;SDS011;7941;50.966;6.978;2023-04-01T22:49:58;25.50;;;19.27;;
15681;SDS011;7941;50.966;6.978;2023-04-01T22:52:44;22.37;;;18.17;;
15681;SDS011;7941;50.966;6.978;2023-04-01T22:55:16;25.77;;;19.63;;
15681;SDS011;7941;50.966;6.978;2023-04-01T22:57:50;23.17;;;18.23;;
15681;SDS011;7941;50.966;6.978;2023-04-01T23:00:20;20.40;;;16.37;;
15681;SDS011;7941;50.966;6.978;2023-04-01T23:03:01;24.57;;;19.93;;
15681;SDS011;7941;50.966;6.978;2023-04-01T23:05:30;23.43;;;19.43;;
15681;SDS011;7941;50.966;6.978;2023-04-01T23:10:42;23.93;;;18.33;;
15681;SDS011;7941;50.966;6.978;2023-04-01T23:13:14;19.83;;;17.60;;
15681;SDS011;7941;50.966;6.978;2023-04-01T23:15:42;22.50;;;18.77;;
15681;SDS011;7941;50.966;6.978;2023-04-01T23:18:12;21.07;;;17.10;;
15681;SDS011;7941;50.966;6.978;2023-04-01T23:20:58;19.20;;;16.73;;
15681;SDS011;7941;50.966;6.978;2023-04-01T23:26:15;19.17;;;16.97;;
15681;SDS011;7941;50.966;6.978;2023-04-01T23:28:48;22.53;;;17.47;;
15681;SDS011;7941;50.966;6.978;2023-04-01T23:33:58;18.60;;;16.60;;
15681;SDS011;7941;50.966;6.978;2023-04-01T23:36:25;19.07;;;16.60;;
15681;SDS011;7941;50.966;6.978;2023-04-01T23:38:51;16.40;;;14.73;;
15681;SDS011;7941;50.966;6.978;2023-04-01T23:41:23;18.87;;;16.30;;
15681;SDS011;7941;50.966;6.978;2023-04-01T23:44:01;17.47;;;15.60;;
15681;SDS011;7941;50.966;6.978;2023-04-01T23:46:28;19.00;;;16.13;;
15681;SDS011;7941;50.966;6.978;2023-04-01T23:48:55;17.70;;;15.03;;
15681;SDS011;7941;50.966;6.978;2023-04-01T23:51:24;16.97;;;15.23;;
15681;SDS011;7941;50.966;6.978;2023-04-01T23:54:29;17.63;;;14.30;;
15681;SDS011;7941;50.966;6.978;2023-04-01T23:56:45;18.50;;;16.50;;
